Time;durP1;ratioP1;P1;durP2;ratioP2;P2;SDS_P1;SDS_P2;PMS_P1;PMS_P2;Temp;Humidity;BMP_temperature;BMP_pressure;BME280_temperature;BME280_humidity;BME280_pressure;Samples;Min_cycle;Max_cycle;Signal;HPM_P1;HPM_P2
2023/08/05 00:01:52;;;;;;;0.47;0.45;;;;;;;17.40;100.00;96066.88;5076417;28;20594;-70
2023/08/05 00:04:19;;;;;;;0.88;0.55;;;;;;;17.37;100.00;96069.97;5076512;28;20199;-70
2023/08/05 00:06:45;;;;;;;0.43;0.43;;;;;;;17.56;100.00;96076.94;5076806;28;20204;-70
2023/08/05 00:09:12;;;;;;;2.17;0.45;;;;;;;17.51;100.00;96074.13;5076117;28;20204;-70
2023/08/05 00:11:38;;;;;;;1.20;0.68;;;;;;;17.53;100.00;96073.91;5076067;28;20239;-71
2023/08/05 00:14:05;;;;;;;0.60;0.60;;;;;;;17.47;100.00;96077.47;5076866;28;20582;-70
2023/08/05 00:16:32;;;;;;;1.55;0.68;;;;;;;17.81;100.00;96070.47;5075762;28;20223;-70
2023/08/05 00:18:59;;;;;;;1.17;0.50;;;;;;;17.59;100.00;96057.03;5075332;28;20215;-70
2023/08/05 00:21:25;;;;;;;0.77;0.50;;;;;;;17.52;100.00;96066.97;5076279;28;20591;-70
2023/08/05 00:23:52;;;;;;;0.82;0.60;;;;;;;17.56;100.00;96073.47;5076562;28;20565;-70
2023/08/05 00:26:18;;;;;;;1.15;0.80;;;;;;;17.47;100.00;96062.28;5076322;28;20509;-70
2023/08/05 00:28:45;;;;;;;1.45;0.77;;;;;;;17.49;100.00;96067.38;5075389;28;20667;-70
2023/08/05 00:31:11;;;;;;;0.40;0.40;;;;;;;17.45;100.00;96076.88;5076511;28;20236;-70
2023/08/05 00:33:39;;;;;;;0.50;0.40;;;;;;;17.75;100.00;96070.53;5075437;28;20215;-69
2023/08/05 00:36:06;;;;;;;0.82;0.60;;;;;;;17.53;100.00;96068.59;5076395;28;20223;-70
2023/08/05 00:38:32;;;;;;;1.33;0.57;;;;;;;17.54;100.00;96076.34;5075654;28;20202;-70
2023/08/05 00:40:59;;;;;;;0.82;0.50;;;;;;;17.63;100.00;96069.69;5075884;28;20672;-70
2023/08/05 00:43:25;;;;;;;2.42;0.80;;;;;;;17.69;100.00;96062.63;5076357;28;20203;-70
2023/08/05 00:45:52;;;;;;;0.93;0.60;;;;;;;17.61;100.00;96060.28;5076135;28;20223;-70
2023/08/05 00:48:19;;;;;;;1.08;0.50;;;;;;;17.63;100.00;96063.53;5075023;28;20199;-69
2023/08/05 00:50:47;;;;;;;3.08;0.60;;;;;;;17.91;100.00;96075.28;5076792;28;20207;-70
2023/08/05 00:53:14;;;;;;;1.02;0.73;;;;;;;17.68;100.00;96066.34;5075618;28;20224;-70
2023/08/05 00:55:41;;;;;;;1.33;0.88;;;;;;;17.92;100.00;96071.53;5076448;28;20355;-69
2023/08/05 00:58:08;;;;;;;3.03;0.63;;;;;;;17.68;100.00;96077.81;5075558;28;20200;-70
2023/08/05 01:00:33;;;;;;;0.47;0.40;;;;;;;17.69;100.00;96081.28;5076401;28;20211;-70
2023/08/05 01:03:00;;;;;;;0.73;0.73;;;;;;;17.72;100.00;96079.00;5075486;28;20731;-70
2023/08/05 01:05:27;;;;;;;1.70;0.60;;;;;;;17.77;100.00;96081.81;5076284;28;20212;-71
2023/08/05 01:07:56;;;;;;;0.45;0.43;;;;;;;18.04;100.00;96080.41;5075057;28;20204;-70
2023/08/05 01:10:22;;;;;;;1.75;0.70;;;;;;;17.73;100.00;96075.28;5076133;28;20453;-71
2023/08/05 01:12:49;;;;;;;1.08;0.80;;;;;;;17.62;100.00;96075.25;5075569;28;20233;-70
2023/08/05 01:15:15;;;;;;;1.15;0.70;;;;;;;17.63;100.00;96066.19;5075322;28;20587;-70
2023/08/05 01:17:42;;;;;;;1.95;1.00;;;;;;;17.27;100.00;96058.22;5075162;28;20542;-69
2023/08/05 01:20:12;;;;;;;0.90;0.65;;;;;;;17.71;100.00;96058.72;5075863;28;20215;-69
2023/08/05 01:22:42;;;;;;;1.10;0.60;;;;;;;17.74;100.00;96055.59;5076193;28;20228;-70
2023/08/05 01:25:24;;;;;;;2.83;0.88;;;;;;;18.00;100.00;96050.72;5075803;28;20200;-69
2023/08/05 01:27:53;;;;;;;1.38;0.50;;;;;;;17.80;100.00;96050.16;5074822;28;20235;-69
2023/08/05 01:30:21;;;;;;;0.77;0.55;;;;;;;17.74;100.00;96043.09;5075451;28;20203;-69
2023/08/05 01:32:49;;;;;;;1.00;0.77;;;;;;;17.76;100.00;96040.19;5075827;28;20632;-71
2023/08/05 01:35:18;;;;;;;2.03;0.93;;;;;;;17.62;100.00;96041.41;5075714;28;20204;-71
2023/08/05 01:37:46;;;;;;;1.05;0.77;;;;;;;17.57;100.00;96035.94;5074916;28;20219;-69
2023/08/05 01:40:13;;;;;;;0.82;0.73;;;;;;;17.70;100.00;96038.41;5077235;28;20207;-69
2023/08/05 01:42:41;;;;;;;2.45;1.38;;;;;;;17.81;100.00;96029.69;5078547;28;20227;-71
2023/08/05 01:45:08;;;;;;;1.23;0.90;;;;;;;17.63;100.00;96026.22;5078881;28;20512;-70
2023/08/05 01:47:35;;;;;;;1.25;0.63;;;;;;;17.54;100.00;96023.06;5078503;28;20210;-69
2023/08/05 01:50:02;;;;;;;1.52;0.82;;;;;;;17.58;100.00;96012.75;5078963;28;20212;-69
2023/08/05 01:52:28;;;;;;;1.30;0.90;;;;;;;17.62;100.00;96011.28;5078723;28;20231;-69
2023/08/05 01:54:55;;;;;;;1.38;1.00;;;;;;;17.53;100.00;96000.13;5078590;28;20207;-70
2023/08/05 01:57:21;;;;;;;3.63;1.17;;;;;;;17.18;100.00;95993.78;5078597;28;20228;-70
2023/08/05 01:59:49;;;;;;;6.22;1.02;;;;;;;17.41;100.00;95996.59;5078392;28;20883;-71
2023/08/05 02:02:15;;;;;;;2.72;1.40;;;;;;;17.13;100.00;95993.63;5079307;28;20386;-68
2023/08/05 02:04:42;;;;;;;1.45;0.90;;;;;;;17.16;100.00;95982.53;5079258;28;20544;-71
2023/08/05 02:07:08;;;;;;;2.15;1.10;;;;;;;17.28;100.00;95986.09;5078074;28;20203;-71
2023/08/05 02:09:35;;;;;;;1.90;1.13;;;;;;;17.32;100.00;95984.63;5078725;28;20468;-69
2023/08/05 02:12:01;;;;;;;4.10;1.35;;;;;;;17.36;100.00;95977.81;5078412;28;20220;-69
2023/08/05 02:14:28;;;;;;;1.50;1.05;;;;;;;17.32;100.00;95976.63;5078832;28;20638;-70
2023/08/05 02:16:56;;;;;;;3.38;0.85;;;;;;;17.60;100.00;95971.53;5077669;28;20223;-69
2023/08/05 02:19:22;;;;;;;1.83;1.08;;;;;;;17.54;100.00;95972.44;5078934;28;20196;-70
2023/08/05 02:21:49;;;;;;;3.20;1.25;;;;;;;17.54;100.00;95972.44;5078231;28;20590;-71
2023/08/05 02:24:15;;;;;;;3.97;1.63;;;;;;;17.59;100.00;95967.25;5078063;28;20204;-70
2023/08/05 02:26:42;;;;;;;1.38;1.27;;;;;;;17.70;100.00;95958.47;5079583;28;20223;-71
2023/08/05 02:29:09;;;;;;;11.55;2.15;;;;;;;17.71;100.00;95951.31;5077906;28;20672;-71
2023/08/05 02:31:35;;;;;;;1.90;1.00;;;;;;;17.68;100.00;95955.22;5076985;28;20402;-70
2023/08/05 02:34:03;;;;;;;3.38;1.25;;;;;;;17.88;100.00;95959.22;5078550;28;20231;-69
2023/08/05 02:36:30;;;;;;;2.35;1.17;;;;;;;17.64;100.00;95964.69;5075639;28;20224;-71
2023/08/05 02:38:56;;;;;;;1.92;1.15;;;;;;;17.67;100.00;95974.91;5077220;28;20196;-70
2023/08/05 02:41:23;;;;;;;3.00;1.35;;;;;;;17.50;100.00;95995.25;5078742;28;20226;-69
2023/08/05 02:43:49;;;;;;;4.22;1.60;;;;;;;17.63;100.00;96000.41;5078465;28;20606;-70
2023/08/05 02:46:16;;;;;;;2.97;1.65;;;;;;;17.78;100.00;96009.63;5077596;28;20196;-70
2023/08/05 02:48:43;;;;;;;3.10;1.65;;;;;;;17.86;100.00;96019.16;5076934;28;20791;-69
2023/08/05 02:51:10;;;;;;;2.05;1.38;;;;;;;18.06;100.00;96019.66;5077772;28;20566;-70
2023/08/05 02:53:37;;;;;;;2.40;1.50;;;;;;;17.81;100.00;96027.00;5077586;28;20204;-70
2023/08/05 02:56:04;;;;;;;3.30;1.65;;;;;;;17.88;100.00;96025.03;5077807;28;20204;-70
2023/08/05 02:58:30;;;;;;;1.80;1.40;;;;;;;17.93;100.00;96022.53;5077497;28;20211;-70
2023/08/05 03:01:05;;;;;;;1.85;1.10;;;;;;;18.31;100.00;96017.66;5077495;28;20200;-70
2023/08/05 03:03:31;;;;;;;4.70;1.70;;;;;;;18.05;100.00;96020.69;5077704;28;20473;-70
2023/08/05 03:05:58;;;;;;;3.20;1.35;;;;;;;17.97;100.00;96013.84;5077765;28;20241;-70
2023/08/05 03:08:26;;;;;;;3.80;1.40;;;;;;;18.07;100.00;96029.28;5077373;28;20203;-69
2023/08/05 03:10:58;;;;;;;3.00;1.08;;;;;;;18.20;100.00;96029.13;5077140;28;20200;-70
2023/08/05 03:13:24;;;;;;;2.80;1.38;;;;;;;18.01;100.00;96035.53;5077347;28;20671;-71
2023/08/05 03:15:51;;;;;;;3.53;1.65;;;;;;;18.02;100.00;96039.81;5077939;28;20573;-71
2023/08/05 03:18:18;;;;;;;6.78;1.60;;;;;;;18.11;100.00;96051.78;5076311;28;20226;-69
2023/08/05 03:20:45;;;;;;;4.32;1.70;;;;;;;18.17;100.00;96057.06;5077919;28;20718;-71
2023/08/05 03:23:11;;;;;;;3.17;1.52;;;;;;;18.09;100.00;96056.56;5077088;28;20230;-71
2023/08/05 03:25:39;;;;;;;2.05;1.08;;;;;;;18.30;100.00;96046.19;5077287;28;20524;-71
2023/08/05 03:28:06;;;;;;;2.47;1.20;;;;;;;17.88;100.00;96046.38;5076595;28;20226;-70
2023/08/05 03:30:33;;;;;;;3.67;1.50;;;;;;;18.06;100.00;96043.66;5078388;28;20207;-71
2023/08/05 03:32:59;;;;;;;3.53;1.77;;;;;;;17.94;100.00;96040.16;5076531;28;20259;-70
2023/08/05 03:35:26;;;;;;;5.28;2.13;;;;;;;17.76;100.00;96042.88;5077296;28;20494;-69
2023/08/05 03:37:52;;;;;;;2.95;1.42;;;;;;;17.79;100.00;96047.72;5076696;28;20224;-70
2023/08/05 03:40:19;;;;;;;2.75;1.40;;;;;;;17.60;100.00;96054.13;5077046;28;20202;-70
2023/08/05 03:42:47;;;;;;;4.28;1.80;;;;;;;17.91;100.00;96059.28;5076496;28;20309;-69
2023/08/05 03:45:14;;;;;;;2.72;1.33;;;;;;;17.73;100.00;96057.44;5076928;28;20671;-71
2023/08/05 03:47:40;;;;;;;4.82;1.75;;;;;;;17.92;100.00;96055.53;5076309;28;20826;-69
2023/08/05 03:50:09;;;;;;;5.97;1.92;;;;;;;18.08;100.00;96068.25;5077000;28;20199;-69
2023/08/05 03:52:36;;;;;;;2.92;1.60;;;;;;;18.01;100.00;96072.84;5077654;28;20223;-70
2023/08/05 03:55:03;;;;;;;6.82;4.45;;;;;;;18.04;100.00;96072.41;5076959;28;20200;-70
2023/08/05 03:57:29;;;;;;;4.45;1.70;;;;;;;18.03;100.00;96060.13;5076518;28;20216;-70
2023/08/05 03:59:58;;;;;;;3.83;1.95;;;;;;;18.10;100.00;96055.50;5077283;28;21242;-69
2023/08/05 04:02:25;;;;;;;4.10;1.83;;;;;;;18.01;100.00;96057.69;5077402;28;20224;-70
2023/08/05 04:04:52;;;;;;;5.22;1.92;;;;;;;17.83;100.00;96051.56;5077053;28;20719;-70
2023/08/05 04:07:19;;;;;;;4.65;1.90;;;;;;;17.82;100.00;96057.97;5076824;28;21233;-71
2023/08/05 04:09:46;;;;;;;7.70;2.33;;;;;;;17.51;100.00;96050.13;5077118;28;20265;-70
2023/08/05 04:12:14;;;;;;;3.78;1.98;;;;;;;17.62;100.00;96052.06;5077054;28;20216;-69
2023/08/05 04:14:43;;;;;;;2.30;1.63;;;;;;;17.63;100.00;96040.38;5076702;28;20680;-69
2023/08/05 04:17:12;;;;;;;5.75;1.90;;;;;;;17.60;100.00;96035.47;5076643;28;20223;-70
2023/08/05 04:19:38;;;;;;;2.30;1.40;;;;;;;17.57;100.00;96029.81;5077045;28;20204;-70
2023/08/05 04:22:05;;;;;;;3.13;1.63;;;;;;;17.47;100.00;96048.97;5077058;28;20215;-71
2023/08/05 04:24:32;;;;;;;3.67;1.90;;;;;;;17.75;100.00;96049.22;5076976;28;20200;-69
2023/08/05 04:26:59;;;;;;;4.22;1.80;;;;;;;17.90;100.00;96060.31;5076434;28;20191;-70
2023/08/05 04:29:25;;;;;;;4.32;2.00;;;;;;;17.59;100.00;96078.34;5077079;28;20203;-70
2023/08/05 04:31:53;;;;;;;4.47;2.42;;;;;;;17.85;100.00;96082.28;5076919;28;20236;-69
2023/08/05 04:34:21;;;;;;;3.58;1.75;;;;;;;17.67;100.00;96068.19;5077168;28;20200;-70
2023/08/05 04:36:50;;;;;;;4.65;1.50;;;;;;;17.78;100.00;96073.59;5076875;28;20229;-69
2023/08/05 04:39:17;;;;;;;5.05;2.28;;;;;;;17.89;100.00;96069.34;5076015;28;20210;-69
2023/08/05 04:41:44;;;;;;;3.97;1.63;;;;;;;17.84;100.00;96071.84;5077013;28;20227;-69
2023/08/05 04:44:11;;;;;;;3.22;1.67;;;;;;;17.84;100.00;96066.53;5076444;28;20286;-68
2023/08/05 04:46:37;;;;;;;4.75;2.20;;;;;;;17.67;100.00;96064.69;5076538;28;20206;-69
2023/08/05 04:49:07;;;;;;;2.50;1.67;;;;;;;17.57;100.00;96062.56;5075912;28;20198;-70
2023/08/05 04:51:35;;;;;;;3.42;2.05;;;;;;;17.91;100.00;96052.06;5076523;28;20647;-69
2023/08/05 04:54:02;;;;;;;4.28;1.83;;;;;;;17.60;100.00;96051.47;5076241;28;20227;-69
2023/08/05 04:56:28;;;;;;;3.40;1.60;;;;;;;17.46;100.00;96052.66;5076804;28;20203;-68
2023/08/05 04:58:55;;;;;;;3.85;1.90;;;;;;;17.35;100.00;96060.59;5075911;28;20307;-69
2023/08/05 05:01:21;;;;;;;3.20;1.70;;;;;;;17.47;100.00;96053.50;5076251;28;20246;-68
2023/08/05 05:03:49;;;;;;;5.43;2.40;;;;;;;17.19;100.00;96050.50;5076839;28;20204;-70
2023/08/05 05:06:16;;;;;;;5.00;2.42;;;;;;;17.45;100.00;96051.06;5076846;28;20694;-70
2023/08/05 05:08:44;;;;;;;5.63;2.00;;;;;;;17.63;100.00;96059.03;5075697;28;20212;-70
2023/08/05 05:11:10;;;;;;;8.27;2.20;;;;;;;17.48;100.00;96055.94;5077141;28;20200;-69
2023/08/05 05:13:38;;;;;;;3.85;1.65;;;;;;;17.48;100.00;96053.25;5076973;28;20743;-69
2023/08/05 05:16:05;;;;;;;3.72;1.75;;;;;;;17.47;100.00;96051.63;5078888;28;20207;-68
2023/08/05 05:18:31;;;;;;;2.40;1.50;;;;;;;17.40;100.00;96052.75;5079197;28;20602;-69
2023/08/05 05:20:58;;;;;;;5.05;2.20;;;;;;;17.42;100.00;96048.81;5081070;28;20585;-70
2023/08/05 05:23:25;;;;;;;5.05;2.65;;;;;;;17.51;100.00;96047.47;5080541;28;20660;-68
2023/08/05 05:25:52;;;;;;;8.50;2.17;;;;;;;17.69;100.00;96043.97;5080091;28;20200;-68
2023/08/05 05:28:19;;;;;;;3.22;1.65;;;;;;;17.71;100.00;96048.06;5080076;28;20196;-69
2023/08/05 05:30:46;;;;;;;5.55;2.30;;;;;;;17.83;100.00;96043.56;5079870;28;20204;-69
2023/08/05 05:33:12;;;;;;;8.55;2.85;;;;;;;17.71;100.00;96048.06;5079947;28;20227;-69
2023/08/05 05:35:39;;;;;;;7.97;2.67;;;;;;;17.65;100.00;96034.81;5079940;28;20200;-70
2023/08/05 05:38:05;;;;;;;4.75;2.15;;;;;;;17.76;100.00;96043.66;5079310;28;20223;-70
2023/08/05 05:40:32;;;;;;;4.00;2.03;;;;;;;17.73;100.00;96038.78;5080415;28;20211;-69
2023/08/05 05:42:59;;;;;;;8.63;2.33;;;;;;;18.11;100.00;96038.44;5079822;28;20219;-69
2023/08/05 05:45:28;;;;;;;3.20;1.58;;;;;;;17.83;100.00;96030.25;5080459;28;20202;-68
2023/08/05 05:47:54;;;;;;;5.00;1.77;;;;;;;17.33;100.00;96039.50;5078976;28;20196;-68
2023/08/05 05:50:21;;;;;;;3.80;1.98;;;;;;;17.55;100.00;96032.66;5079794;28;20579;-70
2023/08/05 05:52:48;;;;;;;7.90;2.15;;;;;;;17.60;100.00;96038.13;5079665;28;20220;-69
2023/08/05 05:55:16;;;;;;;4.63;2.13;;;;;;;17.48;100.00;96039.94;5079820;28;20203;-69
2023/08/05 05:57:43;;;;;;;4.00;2.10;;;;;;;17.80;100.00;96038.69;5078653;28;20228;-70
2023/08/05 06:00:13;;;;;;;5.75;2.13;;;;;;;17.77;100.00;96042.63;5079883;28;20703;-68
2023/08/05 06:02:39;;;;;;;3.97;2.35;;;;;;;17.70;100.00;96041.09;5079055;28;20227;-69
2023/08/05 06:05:07;;;;;;;4.60;2.10;;;;;;;17.98;100.00;96052.78;5079785;28;20202;-69
2023/08/05 06:07:33;;;;;;;4.72;2.42;;;;;;;17.99;100.00;96051.75;5078518;28;20192;-68
2023/08/05 06:10:00;;;;;;;7.55;2.42;;;;;;;18.18;100.00;96052.56;5080173;28;20206;-71
2023/08/05 06:12:32;;;;;;;4.38;2.50;;;;;;;18.01;100.00;96062.19;5078958;28;20330;-68
2023/08/05 06:14:59;;;;;;;3.72;1.90;;;;;;;18.06;100.00;96065.81;5079672;28;20208;-70
2023/08/05 06:17:27;;;;;;;4.10;2.03;;;;;;;18.16;100.00;96059.91;5078485;28;20227;-70
2023/08/05 06:19:54;;;;;;;3.83;2.03;;;;;;;18.18;100.00;96060.56;5079603;28;20200;-69
2023/08/05 06:22:20;;;;;;;6.63;2.45;;;;;;;18.16;100.00;96067.94;5079190;28;20226;-71
2023/08/05 06:24:47;;;;;;;4.90;2.47;;;;;;;17.89;100.00;96064.00;5079523;28;20571;-70
2023/08/05 06:27:13;;;;;;;3.78;1.63;;;;;;;17.94;100.00;96056.16;5078018;28;20214;-70
2023/08/05 06:29:40;;;;;;;4.88;2.38;;;;;;;17.95;100.00;96063.13;5079021;28;20286;-70
2023/08/05 06:32:07;;;;;;;6.00;3.00;;;;;;;18.03;100.00;96078.78;5078846;28;20227;-70
2023/08/05 06:34:35;;;;;;;5.20;2.17;;;;;;;18.33;100.00;96080.44;5079496;28;20206;-70
2023/08/05 06:37:01;;;;;;;8.10;2.78;;;;;;;18.27;100.00;96085.88;5077626;28;20309;-70
2023/08/05 06:39:28;;;;;;;5.68;2.47;;;;;;;18.09;100.00;96081.34;5078475;28;20224;-70
2023/08/05 06:41:54;;;;;;;8.70;4.15;;;;;;;17.99;100.00;96088.28;5078195;28;20220;-70
2023/08/05 06:44:21;;;;;;;5.80;2.78;;;;;;;17.96;100.00;96083.38;5078043;28;20667;-71
2023/08/05 06:46:47;;;;;;;5.22;2.53;;;;;;;17.91;100.00;96078.75;5078188;28;20200;-70
2023/08/05 06:49:14;;;;;;;7.70;3.03;;;;;;;18.18;100.00;96077.34;5078031;28;20207;-70
2023/08/05 06:51:41;;;;;;;6.10;2.88;;;;;;;18.57;100.00;96072.25;5077363;28;20225;-71
2023/08/05 06:54:10;;;;;;;6.95;2.58;;;;;;;18.27;100.00;96088.53;5078016;28;20568;-70
2023/08/05 06:56:37;;;;;;;6.75;2.58;;;;;;;18.35;100.00;96087.16;5078241;28;20665;-69
2023/08/05 06:59:02;;;;;;;6.40;2.10;;;;;;;18.43;100.00;96073.50;5076509;28;20462;-69
2023/08/05 07:01:30;;;;;;;4.93;2.53;;;;;;;18.31;100.00;96073.69;5078214;28;20227;-71
2023/08/05 07:03:56;;;;;;;4.25;1.95;;;;;;;18.49;100.00;96071.75;5077830;28;20199;-69
2023/08/05 07:06:23;;;;;;;5.68;2.55;;;;;;;18.74;100.00;96070.50;5077794;28;20234;-67
2023/08/05 07:08:51;;;;;;;5.38;2.33;;;;;;;18.79;100.00;96065.28;5076972;28;20196;-71
2023/08/05 07:11:18;;;;;;;7.85;2.60;;;;;;;18.77;100.00;96064.69;5077304;28;20288;-71
2023/08/05 07:13:44;;;;;;;8.00;3.25;;;;;;;18.76;100.00;96063.09;5077812;28;20325;-71
2023/08/05 07:16:11;;;;;;;4.40;2.30;;;;;;;18.87;100.00;96069.47;5077402;28;20203;-70
2023/08/05 07:18:37;;;;;;;4.38;2.40;;;;;;;18.95;100.00;96072.59;5077230;28;20679;-68
2023/08/05 07:21:04;;;;;;;5.78;2.75;;;;;;;18.99;100.00;96063.06;5077682;28;20203;-68
2023/08/05 07:23:30;;;;;;;4.43;2.17;;;;;;;18.74;100.00;96067.84;5078004;28;20215;-71
2023/08/05 07:26:01;;;;;;;2.55;1.65;;;;;;;18.99;100.00;96068.41;5077583;28;20204;-68
2023/08/05 07:28:28;;;;;;;4.68;1.85;;;;;;;18.46;100.00;96072.22;5078085;28;20199;-70
2023/08/05 07:31:03;;;;;;;4.15;2.08;;;;;;;18.80;100.00;96068.75;5077753;28;20200;-71
2023/08/05 07:33:30;;;;;;;3.05;1.80;;;;;;;18.36;100.00;96083.44;5078052;28;20207;-70
2023/08/05 07:35:57;;;;;;;4.38;2.10;;;;;;;18.36;100.00;96079.97;5078365;28;21318;-68
2023/08/05 07:38:25;;;;;;;3.30;2.05;;;;;;;18.47;100.00;96068.50;5075754;28;20219;-70
2023/08/05 07:40:54;;;;;;;6.03;2.78;;;;;;;18.90;100.00;96072.47;5076733;28;20282;-70
2023/08/05 07:43:23;;;;;;;3.10;2.03;;;;;;;19.22;100.00;96074.59;5077987;28;20319;-71
2023/08/05 07:45:50;;;;;;;6.53;2.60;;;;;;;19.09;100.00;96068.69;5077782;28;20196;-71
2023/08/05 07:48:17;;;;;;;4.35;2.25;;;;;;;18.66;100.00;96065.53;5076524;28;20202;-69
2023/08/05 07:50:43;;;;;;;4.00;2.30;;;;;;;18.95;100.00;96062.75;5077189;28;20203;-71
2023/08/05 07:53:10;;;;;;;4.88;2.13;;;;;;;18.84;100.00;96062.75;5077669;28;20239;-69
2023/08/05 07:55:37;;;;;;;5.10;2.35;;;;;;;19.06;100.00;96053.13;5077340;28;20207;-71
2023/08/05 07:58:04;;;;;;;5.63;2.45;;;;;;;18.95;100.00;96065.41;5076813;28;20281;-70
2023/08/05 08:00:33;;;;;;;4.10;2.03;;;;;;;18.69;100.00;96073.06;5076740;28;20207;-70
2023/08/05 08:02:59;;;;;;;3.42;2.03;;;;;;;18.64;100.00;96069.47;5076825;28;20220;-69
2023/08/05 08:05:27;;;;;;;6.15;2.60;;;;;;;18.66;100.00;96070.84;5077246;28;20204;-70
2023/08/05 08:07:55;;;;;;;5.53;1.58;;;;;;;18.81;100.00;96076.53;5076061;28;20196;-71
2023/08/05 08:10:24;;;;;;;4.30;2.63;;;;;;;18.63;100.00;96073.16;5076695;28;20650;-71
2023/08/05 08:12:51;;;;;;;5.88;1.67;;;;;;;19.02;100.00;96057.28;5076778;28;20601;-71
2023/08/05 08:15:18;;;;;;;5.38;1.98;;;;;;;19.41;100.00;96051.22;5076786;28;20233;-69
2023/08/05 08:17:46;;;;;;;4.20;2.13;;;;;;;19.83;100.00;96040.88;5075456;28;20210;-71
2023/08/05 08:20:13;;;;;;;3.65;2.08;;;;;;;19.64;100.00;96043.97;5076673;28;20222;-70
2023/08/05 08:22:39;;;;;;;5.18;2.00;;;;;;;19.75;100.00;96049.25;5076158;28;20846;-69
2023/08/05 08:25:06;;;;;;;3.55;1.83;;;;;;;19.73;100.00;96058.59;5076907;28;20204;-71
2023/08/05 08:27:33;;;;;;;4.10;1.83;;;;;;;19.80;100.00;96060.06;5074825;28;20206;-70
2023/08/05 08:29:59;;;;;;;3.38;2.00;;;;;;;20.18;100.00;96061.09;5076864;28;20199;-71
2023/08/05 08:32:26;;;;;;;5.47;1.88;;;;;;;20.35;100.00;96050.41;5075570;28;20231;-71
2023/08/05 08:34:54;;;;;;;3.20;1.75;;;;;;;20.73;100.00;96050.56;5076715;28;20195;-71
2023/08/05 08:37:20;;;;;;;3.95;2.42;;;;;;;20.44;100.00;96067.69;5075294;28;20210;-70
2023/08/05 08:39:47;;;;;;;3.28;1.67;;;;;;;20.66;100.00;96068.59;5076317;28;20241;-71
2023/08/05 08:42:14;;;;;;;5.45;2.10;;;;;;;20.26;100.00;96070.59;5075531;28;20708;-69
2023/08/05 08:44:42;;;;;;;4.60;1.95;;;;;;;20.27;100.00;96081.06;5076433;28;20199;-68
2023/08/05 08:47:10;;;;;;;6.13;2.25;;;;;;;19.93;100.00;96077.72;5075653;28;20231;-70
2023/08/05 08:49:38;;;;;;;5.03;1.88;;;;;;;20.69;100.00;96074.31;5078296;28;20229;-71
2023/08/05 08:52:08;;;;;;;4.07;2.40;;;;;;;20.51;100.00;96071.84;5080026;28;20312;-69
2023/08/05 08:54:36;;;;;;;4.82;2.15;;;;;;;20.39;100.00;96083.66;5080531;28;20195;-70
2023/08/05 08:57:02;;;;;;;5.07;1.67;;;;;;;20.05;100.00;96076.63;5079325;28;20241;-68
2023/08/05 08:59:29;;;;;;;4.22;2.60;;;;;;;20.26;100.00;96070.59;5079691;28;20215;-68
2023/08/05 09:01:57;;;;;;;4.18;2.10;;;;;;;20.66;100.00;96068.59;5080442;28;20215;-71
2023/08/05 09:04:27;;;;;;;4.75;2.30;;;;;;;20.25;100.00;96069.78;5079997;28;20230;-70
2023/08/05 09:06:55;;;;;;;4.40;1.75;;;;;;;20.67;100.00;96064.88;5079392;28;20208;-70
2023/08/05 09:09:23;;;;;;;7.18;2.15;;;;;;;20.91;100.00;96059.16;5079678;28;20192;-71
2023/08/05 09:11:49;;;;;;;5.32;2.25;;;;;;;20.34;100.00;96063.00;5079463;28;20215;-71
2023/08/05 09:14:16;;;;;;;4.38;1.83;;;;;;;20.88;100.00;96049.72;5079600;28;20316;-69
2023/08/05 09:16:58;;;;;;;3.50;1.63;;;;;;;20.92;100.00;96050.84;5079389;28;20202;-70
2023/08/05 09:19:26;;;;;;;4.82;1.95;;;;;;;20.44;100.00;96048.97;5079916;28;20237;-70
2023/08/05 09:21:53;;;;;;;4.38;1.58;;;;;;;19.90;100.00;96062.13;5079359;28;20230;-71
2023/08/05 09:24:25;;;;;;;3.47;1.67;;;;;;;20.25;100.00;96056.41;5079620;28;20528;-71
2023/08/05 09:26:56;;;;;;;3.10;1.65;;;;;;;20.51;100.00;96050.44;5079355;28;20202;-68
2023/08/05 09:29:24;;;;;;;3.17;1.67;;;;;;;21.28;100.00;96041.47;5079742;28;20196;-70
2023/08/05 09:31:58;;;;;;;3.97;2.33;;;;;;;21.45;100.00;96043.06;5079498;28;20723;-70
2023/08/05 09:34:32;;;;;;;2.78;1.77;;;;;;;21.85;100.00;96039.00;5079443;28;20215;-70
2023/08/05 09:36:59;;;;;;;2.13;1.35;;;;;;;21.65;100.00;96038.78;5078743;28;20208;-71
2023/08/05 09:39:30;;;;;;;2.17;1.30;;;;;;;21.46;100.00;96042.00;5077243;28;20778;-71
2023/08/05 09:41:57;;;;;;;1.98;0.90;;;;;;;21.79;97.02;96040.03;5078760;28;20304;-69
2023/08/05 09:44:24;;;;;;;3.90;1.98;;;;;;;22.16;99.17;96031.06;5079368;28;20204;-70
2023/08/05 09:46:53;;;;;;;3.83;1.58;;;;;;;21.77;100.00;96033.31;5079779;28;20203;-68
2023/08/05 09:49:22;;;;;;;2.35;1.30;;;;;;;21.77;100.00;96036.78;5079234;28;20789;-69
2023/08/05 09:51:50;;;;;;;2.05;1.27;;;;;;;21.62;100.00;96036.59;5079965;28;20220;-71
2023/08/05 09:54:28;;;;;;;2.92;1.40;;;;;;;21.74;99.85;96029.25;5079473;28;20203;-70
2023/08/05 09:56:57;;;;;;;4.75;1.92;;;;;;;21.81;100.00;96037.09;5078859;28;20298;-71
2023/08/05 09:59:25;;;;;;;3.25;1.63;;;;;;;21.56;100.00;96028.72;5079628;28;20317;-71
2023/08/05 10:01:52;;;;;;;3.90;1.40;;;;;;;21.74;99.96;96031.94;5078111;28;20269;-71
2023/08/05 10:04:20;;;;;;;2.67;1.42;;;;;;;21.93;100.00;96024.34;5079986;28;20203;-71
2023/08/05 10:06:48;;;;;;;3.28;1.08;;;;;;;21.76;98.54;96019.06;5080131;28;20204;-71
2023/08/05 10:09:14;;;;;;;1.98;1.25;;;;;;;21.62;100.00;96019.69;5079395;28;20200;-71
2023/08/05 10:11:42;;;;;;;3.03;1.38;;;;;;;22.25;98.48;96008.06;5078742;28;21073;-71
2023/08/05 10:14:11;;;;;;;2.97;1.85;;;;;;;22.49;94.47;96009.38;5079778;28;20199;-70
2023/08/05 10:16:39;;;;;;;3.05;1.20;;;;;;;22.49;99.34;96009.38;5079632;28;20196;-71
2023/08/05 10:19:05;;;;;;;3.03;1.98;;;;;;;23.06;93.54;95996.94;5078711;28;20691;-72
2023/08/05 10:21:40;;;;;;;2.25;1.55;;;;;;;23.69;91.09;95992.97;5078432;28;20224;-69
2023/08/05 10:24:08;;;;;;;1.98;0.98;;;;;;;22.77;92.74;96001.81;5080119;28;20209;-70
2023/08/05 10:26:45;;;;;;;2.22;1.25;;;;;;;23.89;86.74;95998.41;5079242;28;20203;-70
2023/08/05 10:29:30;;;;;;;1.70;1.00;;;;;;;24.35;85.36;96000.94;5078016;28;20207;-72
2023/08/05 10:32:10;;;;;;;1.67;1.10;;;;;;;24.68;81.00;95998.56;5078696;28;20343;-69
2023/08/05 10:34:36;;;;;;;1.85;1.17;;;;;;;24.16;83.85;96007.09;5079298;28;20195;-71
2023/08/05 10:37:03;;;;;;;1.48;0.75;;;;;;;23.67;82.91;96003.16;5077897;28;21216;-69
2023/08/05 10:39:43;;;;;;;2.72;0.77;;;;;;;23.82;79.13;95997.84;5078858;28;20224;-69
2023/08/05 10:42:34;;;;;;;1.48;0.98;;;;;;;23.53;81.46;95991.25;5078878;28;20224;-70
2023/08/05 10:45:05;;;;;;;1.33;1.00;;;;;;;22.94;87.95;95986.34;5078152;28;20991;-69
2023/08/05 10:47:33;;;;;;;2.50;1.20;;;;;;;22.41;91.75;95992.91;5077376;28;20218;-70
2023/08/05 10:50:00;;;;;;;1.40;0.95;;;;;;;22.29;99.24;95990.41;5078711;28;20196;-71
2023/08/05 10:52:27;;;;;;;1.52;1.27;;;;;;;22.30;93.81;95985.81;5078152;28;20236;-71
2023/08/05 10:54:54;;;;;;;1.98;1.20;;;;;;;22.13;95.43;95982.44;5078514;28;20690;-69
2023/08/05 10:57:46;;;;;;;2.13;1.00;;;;;;;22.67;90.90;95973.25;5077822;28;20192;-69
2023/08/05 11:00:21;;;;;;;2.25;1.30;;;;;;;22.39;91.05;95976.25;5078458;28;20227;-71
2023/08/05 11:02:49;;;;;;;1.25;1.10;;;;;;;21.84;95.12;95980.25;5078041;28;20698;-71
2023/08/05 11:05:16;;;;;;;1.58;1.13;;;;;;;22.22;95.98;95981.72;5078261;28;20245;-71
2023/08/05 11:07:43;;;;;;;2.67;1.45;;;;;;;21.80;95.36;95973.78;5077398;28;20253;-70
2023/08/05 11:10:11;;;;;;;2.28;1.40;;;;;;;22.11;90.17;95960.41;5078108;28;20196;-71
2023/08/05 11:12:39;;;;;;;2.05;0.90;;;;;;;21.97;88.37;95958.38;5076985;28;20227;-71
2023/08/05 11:15:06;;;;;;;1.35;0.95;;;;;;;22.32;88.17;95954.97;5078387;28;20204;-70
2023/08/05 11:17:34;;;;;;;1.48;0.82;;;;;;;22.56;90.57;95950.09;5077954;28;20203;-72
2023/08/05 11:20:00;;;;;;;1.65;1.08;;;;;;;22.12;94.67;95949.41;5077798;28;20216;-71
2023/08/05 11:22:28;;;;;;;1.35;1.00;;;;;;;22.59;84.34;95950.34;5077006;28;20219;-70
2023/08/05 11:24:57;;;;;;;1.33;1.00;;;;;;;22.99;83.95;95935.34;5076935;28;20675;-71
2023/08/05 11:27:30;;;;;;;1.23;1.05;;;;;;;23.61;82.80;95944.19;5077255;28;20195;-69
2023/08/05 11:29:56;;;;;;;1.98;1.10;;;;;;;23.60;78.41;95939.88;5077305;28;21128;-68